Time,TemperatureF,DewpointF,PressureIn,WindDirection,WindDirectionDegrees,WindSpeedMPH,WindSpeedGustMPH,Humidity,HourlyPrecipIn,Conditions,Clouds,dailyrainin,SolarRadiationWatts/m^2,SoftwareType,DateUTC
2013-07-15 00:02:00,74.7,70.0,30.21,NNW,348,0.0,-999.0,85,-99.99,,,0.00,0,weatherlink.com 1.10,2013-07-15 04:02:00,
2013-07-15 00:18:00,74.3,69.0,30.21,NNW,348,0.0,-999.0,84,-99.99,,,0.00,0,weatherlink.com 1.10,2013-07-15 04:18:00,
2013-07-15 00:33:00,74.1,69.0,30.21,NNW,348,0.0,-999.0,85,-99.99,,,0.00,0,weatherlink.com 1.10,2013-07-15 04:33:00,
2013-07-15 00:48:00,74.1,69.0,30.21,NNW,348,0.0,-999.0,85,-99.99,,,0.00,0,weatherlink.com 1.10,2013-07-15 04:48:00,
2013-07-15 01:03:00,74.0,70.0,30.21,NNW,348,0.0,-999.0,86,-99.99,,,0.00,0,weatherlink.com 1.10,2013-07-15 05:03:00,
2013-07-15 01:18:00,73.7,69.0,30.21,NNW,348,0.0,-999.0,86,-99.99,,,0.00,0,weatherlink.com 1.10,2013-07-15 05:18:00,
2013-07-15 01:33:00,73.6,69.0,30.20,NNW,348,0.0,-999.0,86,-99.99,,,0.00,0,weatherlink.com 1.10,2013-07-15 05:33:00,
2013-07-15 01:48:00,73.7,69.0,30.20,NNW,340,0.0,-999.0,86,-99.99,,,0.00,0,weatherlink.com 1.10,2013-07-15 05:48:00,
2013-07-15 02:03:00,73.9,70.0,30.20,NNW,338,0.0,-999.0,86,-99.99,,,0.00,0,weatherlink.com 1.10,2013-07-15 06:03:00,
2013-07-15 02:18:00,74.4,70.0,30.20,NNW,336,2.0,-999.0,85,-99.99,,,0.00,0,weatherlink.com 1.10,2013-07-15 06:18:00,
2013-07-15 02:33:00,74.4,70.0,30.21,NNW,336,0.0,-999.0,86,-99.99,,,0.00,0,weatherlink.com 1.10,2013-07-15 06:33:00,
2013-07-15 02:48:00,74.3,70.0,30.20,NNW,336,0.0,-999.0,86,-99.99,,,0.00,0,weatherlink.com 1.10,2013-07-15 06:48:00,
2013-07-15 03:03:00,74.0,70.0,30.20,NNW,336,0.0,-999.0,87,-99.99,,,0.00,0,weatherlink.com 1.10,2013-07-15 07:03:00,
2013-07-15 03:18:00,73.9,70.0,30.20,NNW,336,0.0,-999.0,87,-99.99,,,0.00,0,weatherlink.com 1.10,2013-07-15 07:18:00,
2013-07-15 03:33:00,73.8,70.0,30.21,NNW,336,0.0,-999.0,88,-99.99,,,0.00,0,weatherlink.com 1.10,2013-07-15 07:33:00,
2013-07-15 03:48:00,73.7,70.0,30.21,NNW,336,0.0,-999.0,88,-99.99,,,0.00,0,weatherlink.com 1.10,2013-07-15 07:48:00,
2013-07-15 04:03:00,73.6,70.0,30.21,NNW,336,0.0,-999.0,89,-99.99,,,0.00,0,weatherlink.com 1.10,2013-07-15 08:03:00,
2013-07-15 04:18:00,73.4,70.0,30.21,NNW,336,0.0,-999.0,89,-99.99,,,0.00,0,weatherlink.com 1.10,2013-07-15 08:18:00,
2013-07-15 04:33:00,73.2,70.0,30.21,NNW,336,0.0,-999.0,89,-99.99,,,0.00,0,weatherlink.com 1.10,2013-07-15 08:33:00,
2013-07-15 04:48:00,72.9,70.0,30.22,NNW,336,0.0,-999.0,89,-99.99,,,0.00,0,weatherlink.com 1.10,2013-07-15 08:48:00,
2013-07-15 05:03:00,72.6,70.0,30.22,NNW,336,0.0,-999.0,90,-99.99,,,0.00,0,weatherlink.com 1.10,2013-07-15 09:03:00,
2013-07-15 05:18:00,72.2,69.0,30.22,NNW,336,0.0,-999.0,90,-99.99,,,0.00,0,weatherlink.com 1.10,2013-07-15 09:18:00,
2013-07-15 05:33:00,72.1,69.0,30.23,NNW,336,0.0,-999.0,90,-99.99,,,0.00,0,weatherlink.com 1.10,2013-07-15 09:33:00,
2013-07-15 05:48:00,71.9,69.0,30.23,NNW,336,0.0,-999.0,91,-99.99,,,0.00,5,weatherlink.com 1.10,2013-07-15 09:48:00,
2013-07-15 06:03:00,71.7,69.0,30.23,NNW,336,2.0,-999.0,91,-99.99,,,0.00,11,weatherlink.com 1.10,2013-07-15 10:03:00,
2013-07-15 06:18:00,72.2,70.0,30.23,NW,316,4.0,-999.0,92,-99.99,,,0.00,30,weatherlink.com 1.10,2013-07-15 10:18:00,
2013-07-15 06:33:00,72.3,70.0,30.24,NW,316,0.0,-999.0,92,-99.99,,,0.00,33,weatherlink.com 1.10,2013-07-15 10:33:00,
2013-07-15 06:48:00,72.3,70.0,30.24,NW,316,0.0,-999.0,92,-99.99,,,0.00,53,weatherlink.com 1.10,2013-07-15 10:48:00,
2013-07-15 07:03:00,72.6,70.0,30.24,NW,316,0.0,-999.0,92,-99.99,,,0.00,67,weatherlink.com 1.10,2013-07-15 11:03:00,
2013-07-15 07:18:00,73.2,71.0,30.25,NW,316,0.0,-999.0,92,-99.99,,,0.00,83,weatherlink.com 1.10,2013-07-15 11:18:00,
2013-07-15 07:33:00,73.6,71.0,30.26,NW,316,0.0,-999.0,92,-99.99,,,0.00,104,weatherlink.com 1.10,2013-07-15 11:33:00,
2013-07-15 07:48:00,74.0,72.0,30.25,NW,316,0.0,-999.0,92,-99.99,,,0.00,132,weatherlink.com 1.10,2013-07-15 11:48:00,
2013-07-15 08:03:00,74.9,73.0,30.26,NW,316,0.0,-999.0,92,-99.99,,,0.00,148,weatherlink.com 1.10,2013-07-15 12:03:00,
2013-07-15 08:18:00,75.3,72.0,30.26,NW,316,0.0,-999.0,90,-99.99,,,0.00,142,weatherlink.com 1.10,2013-07-15 12:18:00,
2013-07-15 08:33:00,75.8,72.0,30.25,NW,316,0.0,-999.0,89,-99.99,,,0.00,160,weatherlink.com 1.10,2013-07-15 12:33:00,
2013-07-15 08:48:00,76.7,73.0,30.26,NW,316,2.0,-999.0,88,-99.99,,,0.00,137,weatherlink.com 1.10,2013-07-15 12:48:00,
2013-07-15 09:03:00,77.1,73.0,30.26,NW,316,1.0,-999.0,86,-99.99,,,0.00,149,weatherlink.com 1.10,2013-07-15 13:03:00,
2013-07-15 09:19:00,77.4,73.0,30.26,NW,316,2.0,-999.0,85,-99.99,,,0.00,193,weatherlink.com 1.10,2013-07-15 13:19:00,
2013-07-15 09:34:00,77.9,73.0,30.26,NW,316,1.0,-999.0,84,-99.99,,,0.00,334,weatherlink.com 1.10,2013-07-15 13:34:00,
2013-07-15 09:49:00,78.6,73.0,30.26,WNW,290,5.0,-999.0,82,-99.99,,,0.00,352,weatherlink.com 1.10,2013-07-15 13:49:00,
2013-07-15 10:04:00,79.6,73.0,30.25,WNW,285,6.0,-999.0,80,-99.99,,,0.00,693,weatherlink.com 1.10,2013-07-15 14:04:00,
2013-07-15 10:19:00,81.0,74.0,30.25,WNW,300,3.0,-999.0,78,-99.99,,,0.00,721,weatherlink.com 1.10,2013-07-15 14:19:00,
2013-07-15 10:34:00,82.6,74.0,30.25,WNW,288,6.0,-999.0,74,-99.99,,,0.00,775,weatherlink.com 1.10,2013-07-15 14:34:00,
2013-07-15 10:49:00,83.3,73.0,30.25,West,281,5.0,-999.0,71,-99.99,,,0.00,789,weatherlink.com 1.10,2013-07-15 14:49:00,
2013-07-15 11:04:00,84.4,73.0,30.25,West,265,6.0,-999.0,68,-99.99,,,0.00,608,weatherlink.com 1.10,2013-07-15 15:04:00,
2013-07-15 11:19:00,85.4,74.0,30.25,West,281,0.0,-999.0,68,-99.99,,,0.00,603,weatherlink.com 1.10,2013-07-15 15:19:00,
2013-07-15 11:34:00,85.1,73.0,30.25,WNW,302,7.0,-999.0,68,-99.99,,,0.00,394,weatherlink.com 1.10,2013-07-15 15:34:00,
2013-07-15 11:49:00,85.0,74.0,30.25,NW,310,0.0,-999.0,70,-99.99,,,0.00,434,weatherlink.com 1.10,2013-07-15 15:49:00,
2013-07-15 12:04:00,85.5,74.0,30.25,NW,315,5.0,-999.0,68,-99.99,,,0.00,956,weatherlink.com 1.10,2013-07-15 16:04:00,
2013-07-15 12:19:00,85.6,74.0,30.25,NW,311,7.0,-999.0,68,-99.99,,,0.00,1146,weatherlink.com 1.10,2013-07-15 16:19:00,
2013-07-15 12:34:00,85.3,74.0,30.24,West,276,6.0,-999.0,69,-99.99,,,0.00,1062,weatherlink.com 1.10,2013-07-15 16:34:00,
2013-07-15 12:49:00,85.9,74.0,30.24,WNW,288,7.0,-999.0,68,-99.99,,,0.00,299,weatherlink.com 1.10,2013-07-15 16:49:00,
2013-07-15 13:04:00,86.1,74.0,30.23,West,275,5.0,-999.0,67,-99.99,,,0.00,953,weatherlink.com 1.10,2013-07-15 17:04:00,
2013-07-15 13:19:00,87.5,75.0,30.23,WSW,247,1.0,-999.0,66,-99.99,,,0.00,318,weatherlink.com 1.10,2013-07-15 17:19:00,
2013-07-15 13:34:00,88.5,74.0,30.23,WNW,283,0.0,-999.0,63,-99.99,,,0.00,322,weatherlink.com 1.10,2013-07-15 17:34:00,
2013-07-15 13:49:00,89.5,74.0,30.23,West,278,3.0,-999.0,61,-99.99,,,0.00,1028,weatherlink.com 1.10,2013-07-15 17:49:00,
2013-07-15 14:04:00,89.1,74.0,30.23,West,265,8.0,-999.0,61,-99.99,,,0.00,1011,weatherlink.com 1.10,2013-07-15 18:04:00,
2013-07-15 14:19:00,89.4,74.0,30.22,NW,317,7.0,-999.0,61,-99.99,,,0.00,729,weatherlink.com 1.10,2013-07-15 18:19:00,
2013-07-15 14:34:00,88.5,73.0,30.21,NNW,329,6.0,-999.0,60,-99.99,,,0.00,976,weatherlink.com 1.10,2013-07-15 18:34:00,
2013-07-15 15:04:00,90.2,72.0,30.20,West,271,4.0,-999.0,56,-99.99,,,0.00,900,weatherlink.com 1.10,2013-07-15 19:04:00,
2013-07-15 15:19:00,89.7,72.0,30.20,WNW,296,5.0,-999.0,57,-99.99,,,0.00,779,weatherlink.com 1.10,2013-07-15 19:19:00,
2013-07-15 15:34:00,88.9,72.0,30.20,WNW,291,10.0,-999.0,57,-99.99,,,0.00,179,weatherlink.com 1.10,2013-07-15 19:34:00,
2013-07-15 16:19:00,89.2,72.0,30.20,WSW,250,6.0,-999.0,57,-99.99,,,0.00,689,weatherlink.com 1.10,2013-07-15 20:19:00,
2013-07-15 16:34:00,89.3,71.0,30.20,West,267,10.0,-999.0,55,-99.99,,,0.00,661,weatherlink.com 1.10,2013-07-15 20:34:00,
2013-07-15 16:49:00,89.1,71.0,30.20,WNW,289,9.0,-999.0,55,-99.99,,,0.00,622,weatherlink.com 1.10,2013-07-15 20:49:00,
2013-07-15 17:04:00,88.6,71.0,30.20,NW,323,5.0,-999.0,57,-99.99,,,0.00,584,weatherlink.com 1.10,2013-07-15 21:04:00,
2013-07-15 17:19:00,87.7,71.0,30.20,WNW,290,6.0,-999.0,58,-99.99,,,0.00,543,weatherlink.com 1.10,2013-07-15 21:19:00,
2013-07-15 17:34:00,87.4,70.0,30.20,WSW,250,7.0,-999.0,57,-99.99,,,0.00,499,weatherlink.com 1.10,2013-07-15 21:34:00,
2013-07-15 18:04:00,87.1,68.0,30.19,NW,306,4.0,-999.0,54,-99.99,,,0.00,413,weatherlink.com 1.10,2013-07-15 22:04:00,
2013-07-15 18:20:00,87.2,67.0,30.19,WNW,294,6.0,-999.0,51,-99.99,,,0.00,371,weatherlink.com 1.10,2013-07-15 22:20:00,
2013-07-15 18:35:00,87.0,67.0,30.19,WNW,285,4.0,-999.0,51,-99.99,,,0.00,329,weatherlink.com 1.10,2013-07-15 22:35:00,
2013-07-15 19:05:00,86.5,66.0,30.19,WNW,301,5.0,-999.0,51,-99.99,,,0.00,230,weatherlink.com 1.10,2013-07-15 23:05:00,
2013-07-15 19:20:00,86.4,67.0,30.19,WNW,302,0.0,-999.0,53,-99.99,,,0.00,176,weatherlink.com 1.10,2013-07-15 23:20:00,
2013-07-15 19:35:00,85.9,68.0,30.19,WNW,302,2.0,-999.0,55,-99.99,,,0.00,127,weatherlink.com 1.10,2013-07-15 23:35:00,
2013-07-15 19:50:00,85.4,69.0,30.19,WNW,302,0.0,-999.0,58,-99.99,,,0.00,81,weatherlink.com 1.10,2013-07-15 23:50:00,
2013-07-15 20:20:00,83.2,69.0,30.19,WNW,302,0.0,-999.0,63,-99.99,,,0.00,18,weatherlink.com 1.10,2013-07-16 00:20:00,
2013-07-15 20:35:00,81.9,69.0,30.19,WNW,302,0.0,-999.0,64,-99.99,,,0.00,9,weatherlink.com 1.10,2013-07-16 00:35:00,
2013-07-15 20:50:00,80.8,68.0,30.19,WNW,302,0.0,-999.0,66,-99.99,,,0.00,0,weatherlink.com 1.10,2013-07-16 00:50:00,
2013-07-15 21:05:00,79.9,68.0,30.19,WNW,302,0.0,-999.0,68,-99.99,,,0.00,0,weatherlink.com 1.10,2013-07-16 01:05:00,
2013-07-15 21:20:00,78.6,68.0,30.19,WNW,302,0.0,-999.0,71,-99.99,,,0.00,0,weatherlink.com 1.10,2013-07-16 01:20:00,
2013-07-15 21:35:00,77.7,69.0,30.19,WNW,302,0.0,-999.0,75,-99.99,,,0.00,0,weatherlink.com 1.10,2013-07-16 01:35:00,
2013-07-15 21:50:00,76.6,68.0,30.19,WNW,302,0.0,-999.0,74,-99.99,,,0.00,0,weatherlink.com 1.10,2013-07-16 01:50:00,
2013-07-15 22:20:00,75.6,68.0,30.19,WNW,302,0.0,-999.0,76,-99.99,,,0.00,0,weatherlink.com 1.10,2013-07-16 02:20:00,
2013-07-15 22:35:00,75.0,67.0,30.20,WNW,302,0.0,-999.0,77,-99.99,,,0.00,0,weatherlink.com 1.10,2013-07-16 02:35:00,
2013-07-15 22:50:00,74.4,68.0,30.20,WNW,302,0.0,-999.0,79,-99.99,,,0.00,0,weatherlink.com 1.10,2013-07-16 02:50:00,
2013-07-15 23:20:00,73.5,67.0,30.20,WNW,302,0.0,-999.0,81,-99.99,,,0.00,0,weatherlink.com 1.10,2013-07-16 03:20:00,
2013-07-15 23:35:00,73.1,68.0,30.19,WNW,302,0.0,-999.0,83,-99.99,,,0.00,0,weatherlink.com 1.10,2013-07-16 03:35:00,
2013-07-15 23:50:00,72.6,67.0,30.19,WNW,302,0.0,-999.0,83,-99.99,,,0.00,0,weatherlink.com 1.10,2013-07-16 03:50:00,